createdAt,value
2022-08-31T00:02:28.248Z,2.10
2022-08-31T00:04:58.441Z,2.97
2022-08-31T00:07:28.702Z,2.15
2022-08-31T00:09:57.485Z,2.22
2022-08-31T00:12:26.140Z,2.20
2022-08-31T00:14:54.805Z,2.25
2022-08-31T00:17:23.448Z,2.53
2022-08-31T00:19:51.818Z,2.10
2022-08-31T00:22:22.036Z,2.38
2022-08-31T00:24:50.682Z,3.08
2022-08-31T00:27:19.403Z,3.58
2022-08-31T00:29:48.205Z,3.75
2022-08-31T00:32:16.893Z,3.45
2022-08-31T00:34:49.994Z,2.50
2022-08-31T00:37:18.732Z,2.30
2022-08-31T00:39:48.892Z,2.42
2022-08-31T00:42:17.576Z,2.17
2022-08-31T00:44:46.632Z,1.92
2022-08-31T00:47:15.729Z,2.30
2022-08-31T00:49:47.661Z,3.05
2022-08-31T00:52:18.455Z,2.13
2022-08-31T00:54:51.272Z,2.00
2022-08-31T00:57:20.926Z,2.63
2022-08-31T01:00:05.957Z,3.40
2022-08-31T01:02:35.004Z,2.30
2022-08-31T01:05:03.785Z,2.15
2022-08-31T01:07:32.484Z,2.88
2022-08-31T01:10:02.697Z,2.17
2022-08-31T01:12:32.045Z,2.45
2022-08-31T01:15:03.415Z,2.55
2022-08-31T01:17:33.343Z,2.33
2022-08-31T01:20:10.699Z,2.47
2022-08-31T01:22:43.539Z,2.35
2022-08-31T01:25:14.670Z,2.25
2022-08-31T01:27:43.628Z,2.33
2022-08-31T01:30:14.763Z,2.30
2022-08-31T01:32:43.459Z,2.28
2022-08-31T01:35:12.367Z,2.28
2022-08-31T01:37:40.898Z,2.78
2022-08-31T01:40:11.775Z,3.10
2022-08-31T01:45:12.143Z,2.42
2022-08-31T01:47:41.695Z,2.70
2022-08-31T01:50:10.844Z,3.10
2022-08-31T01:52:39.814Z,2.58
2022-08-31T01:55:09.405Z,2.92
2022-08-31T01:57:38.415Z,2.77
2022-08-31T02:00:29.848Z,4.05
2022-08-31T02:03:01.591Z,2.78
2022-08-31T02:05:31.309Z,2.95
2022-08-31T02:08:01.762Z,2.78
2022-08-31T02:10:31.260Z,3.05
2022-08-31T02:13:00.884Z,2.95
2022-08-31T02:15:34.939Z,3.92
2022-08-31T02:18:03.579Z,3.08
2022-08-31T02:20:32.360Z,2.55
2022-08-31T02:23:03.503Z,3.25
2022-08-31T02:25:32.199Z,3.53
2022-08-31T02:28:03.188Z,3.05
2022-08-31T02:30:32.032Z,3.42
2022-08-31T02:33:03.218Z,3.35
2022-08-31T02:38:01.585Z,2.90
2022-08-31T02:40:30.714Z,3.08
2022-08-31T02:42:59.496Z,2.53
2022-08-31T02:45:28.627Z,3.38
2022-08-31T02:48:06.429Z,3.00
2022-08-31T02:50:43.548Z,2.95
2022-08-31T02:53:14.363Z,2.80
2022-08-31T02:55:44.085Z,3.08
2022-08-31T02:58:13.485Z,2.72
2022-08-31T03:00:46.586Z,3.07
2022-08-31T03:03:18.238Z,2.78
2022-08-31T03:05:47.153Z,2.72
2022-08-31T03:08:16.310Z,2.33
2022-08-31T03:10:47.287Z,2.50
2022-08-31T03:13:15.967Z,3.10
2022-08-31T03:15:45.474Z,3.75
2022-08-31T03:18:19.196Z,2.85
2022-08-31T03:20:47.949Z,3.05
2022-08-31T03:23:16.768Z,3.03
2022-08-31T03:25:45.363Z,3.30
2022-08-31T03:28:14.872Z,2.30
2022-08-31T03:30:49.991Z,3.40
2022-08-31T03:33:20.265Z,2.75
2022-08-31T03:35:49.254Z,2.60
2022-08-31T03:38:18.110Z,2.20
2022-08-31T03:40:46.675Z,2.72
2022-08-31T03:43:16.219Z,2.20
2022-08-31T03:45:45.820Z,2.60
2022-08-31T03:48:15.131Z,2.53
2022-08-31T03:50:47.710Z,2.53
2022-08-31T03:53:25.686Z,2.40
2022-08-31T03:56:01.886Z,2.58
2022-08-31T03:58:33.565Z,2.45
2022-08-31T04:03:51.329Z,2.38
2022-08-31T04:06:42.264Z,2.90
2022-08-31T04:09:31.521Z,2.65
2022-08-31T04:12:32.246Z,2.97
2022-08-31T04:15:30.223Z,2.35
2022-08-31T04:18:01.917Z,2.25
2022-08-31T04:20:50.422Z,2.00
2022-08-31T04:23:21.005Z,2.17
2022-08-31T04:25:53.698Z,2.80
2022-08-31T04:28:22.415Z,3.40
2022-08-31T04:30:52.062Z,3.08
2022-08-31T04:33:22.752Z,2.35
2022-08-31T04:35:51.389Z,2.67
2022-08-31T04:38:22.805Z,2.53
2022-08-31T04:40:52.499Z,2.20
2022-08-31T04:43:23.710Z,2.55
2022-08-31T04:45:53.478Z,2.58
2022-08-31T04:48:23.056Z,2.85
2022-08-31T04:50:52.127Z,2.42
2022-08-31T04:53:22.225Z,2.33
2022-08-31T04:58:23.697Z,2.42
2022-08-31T05:00:53.838Z,2.75
2022-08-31T05:03:53.038Z,2.60
2022-08-31T05:06:22.989Z,2.40
2022-08-31T05:08:55.473Z,2.67
2022-08-31T05:11:25.379Z,2.13
2022-08-31T05:13:53.963Z,2.75
2022-08-31T05:16:22.840Z,2.20
2022-08-31T05:18:52.196Z,2.80
2022-08-31T05:21:28.158Z,2.72
2022-08-31T05:23:59.888Z,2.60
2022-08-31T05:26:31.368Z,3.22
2022-08-31T05:29:00.838Z,2.75
2022-08-31T05:31:30.857Z,2.78
2022-08-31T05:34:02.539Z,2.00
2022-08-31T05:36:38.492Z,2.35
2022-08-31T05:39:11.756Z,2.63
2022-08-31T05:41:40.996Z,2.22
2022-08-31T05:44:10.323Z,2.60
2022-08-31T05:46:40.891Z,2.72
2022-08-31T05:49:10.954Z,2.33
2022-08-31T05:51:40.579Z,1.90
2022-08-31T05:54:12.154Z,2.80
2022-08-31T05:56:42.909Z,2.20
2022-08-31T05:59:12.979Z,2.08
2022-08-31T06:01:42.518Z,2.60
2022-08-31T06:04:26.304Z,2.78
2022-08-31T06:06:57.369Z,2.00
2022-08-31T06:09:30.975Z,2.20
2022-08-31T06:11:59.785Z,2.67
2022-08-31T06:14:28.444Z,3.08
2022-08-31T06:16:57.742Z,1.80
2022-08-31T06:19:26.051Z,2.13
2022-08-31T06:21:57.809Z,2.65
2022-08-31T06:24:30.962Z,2.60
2022-08-31T06:27:00.199Z,2.63
2022-08-31T06:29:36.396Z,2.78
2022-08-31T06:32:11.103Z,1.70
2022-08-31T06:34:43.632Z,2.10
2022-08-31T06:37:18.798Z,1.70
2022-08-31T06:40:09.336Z,1.80
2022-08-31T06:43:09.701Z,1.10
2022-08-31T06:45:58.574Z,1.60
2022-08-31T06:48:32.807Z,2.38
2022-08-31T06:51:01.803Z,1.92
2022-08-31T06:53:31.191Z,1.55
2022-08-31T06:56:23.794Z,1.40
2022-08-31T06:59:12.943Z,1.00
2022-08-31T07:02:00.794Z,1.33
2022-08-31T07:04:34.910Z,1.20
2022-08-31T07:07:03.618Z,1.10
2022-08-31T07:09:32.406Z,1.30
2022-08-31T07:12:02.156Z,0.90
2022-08-31T07:14:30.834Z,1.35
2022-08-31T07:17:03.057Z,1.50
2022-08-31T07:19:32.726Z,1.50
2022-08-31T07:22:02.952Z,1.10
2022-08-31T07:24:34.439Z,1.00
2022-08-31T07:27:08.730Z,1.67
2022-08-31T07:29:42.044Z,1.05
2022-08-31T07:32:17.562Z,0.93
2022-08-31T07:34:46.410Z,1.10
2022-08-31T07:37:44.480Z,0.85
2022-08-31T07:40:31.369Z,1.10
2022-08-31T07:43:04.764Z,0.80
2022-08-31T07:45:37.757Z,1.40
2022-08-31T07:48:08.301Z,1.10
2022-08-31T07:50:59.374Z,1.23
2022-08-31T07:53:47.708Z,1.13
2022-08-31T07:56:36.407Z,1.23
2022-08-31T07:59:15.140Z,0.82
2022-08-31T08:01:45.304Z,1.25
2022-08-31T08:04:25.406Z,0.90
2022-08-31T08:07:15.150Z,0.80
2022-08-31T08:10:03.460Z,1.02
2022-08-31T08:13:04.845Z,0.90
2022-08-31T08:15:54.256Z,1.08
2022-08-31T08:18:51.136Z,0.80
2022-08-31T08:21:23.248Z,1.20
2022-08-31T08:26:54.283Z,0.85
2022-08-31T08:29:39.584Z,1.10
2022-08-31T08:32:13.163Z,0.95
2022-08-31T08:34:44.506Z,0.85
2022-08-31T08:37:14.112Z,1.10
2022-08-31T08:39:43.473Z,1.13
2022-08-31T08:42:22.105Z,1.00
2022-08-31T08:44:50.919Z,1.13
2022-08-31T08:47:25.560Z,1.00
2022-08-31T08:50:03.855Z,0.90
2022-08-31T08:52:41.452Z,1.02
2022-08-31T08:55:12.329Z,0.98
2022-08-31T08:57:42.609Z,1.38
2022-08-31T09:00:14.664Z,1.20
2022-08-31T09:02:58.509Z,0.77
2022-08-31T09:06:00.400Z,0.80
2022-08-31T09:09:08.488Z,1.30
2022-08-31T09:11:50.548Z,1.23
2022-08-31T09:14:28.786Z,0.73
2022-08-31T09:17:02.952Z,0.90
2022-08-31T09:19:53.690Z,1.40
2022-08-31T09:22:22.505Z,1.00
2022-08-31T09:27:46.797Z,0.85
2022-08-31T09:30:18.662Z,0.88
2022-08-31T09:32:56.978Z,0.73
2022-08-31T09:35:34.210Z,0.70
2022-08-31T09:38:07.792Z,0.73
2022-08-31T09:40:40.100Z,0.98
2022-08-31T09:43:11.072Z,0.88
2022-08-31T09:45:53.814Z,0.85
2022-08-31T09:48:43.440Z,0.70
2022-08-31T09:51:22.455Z,1.23
2022-08-31T09:54:10.693Z,0.98
2022-08-31T09:56:55.499Z,1.00
2022-08-31T09:59:34.100Z,0.68
2022-08-31T10:02:02.899Z,0.70
2022-08-31T10:04:38.416Z,0.73
2022-08-31T10:07:14.266Z,1.00
2022-08-31T10:09:46.993Z,0.90
2022-08-31T10:12:21.094Z,0.70
2022-08-31T10:14:52.375Z,0.70
2022-08-31T10:17:26.364Z,0.95
2022-08-31T10:20:06.442Z,0.77
2022-08-31T10:22:41.125Z,0.55
2022-08-31T10:25:17.257Z,0.80
2022-08-31T10:27:48.693Z,0.60
2022-08-31T10:30:27.828Z,0.95
2022-08-31T10:33:01.199Z,0.88
2022-08-31T10:35:36.378Z,0.88
2022-08-31T10:38:21.313Z,1.00
2022-08-31T10:40:52.603Z,1.00
2022-08-31T10:43:24.170Z,1.15
2022-08-31T10:45:54.326Z,0.57
2022-08-31T10:48:25.190Z,1.33
2022-08-31T10:51:05.648Z,0.68
2022-08-31T10:53:45.737Z,1.40
2022-08-31T10:56:16.618Z,1.08
2022-08-31T10:58:57.591Z,0.90
2022-08-31T11:01:32.270Z,0.88
2022-08-31T11:04:15.843Z,1.38
2022-08-31T11:06:49.738Z,0.82
2022-08-31T11:09:23.602Z,1.52
2022-08-31T11:11:57.538Z,0.95
2022-08-31T11:15:06.413Z,1.10
2022-08-31T11:17:49.979Z,1.23
2022-08-31T11:20:39.942Z,0.60
2022-08-31T11:23:26.828Z,0.80
2022-08-31T11:26:24.117Z,0.80
2022-08-31T11:28:55.504Z,1.17
2022-08-31T11:31:27.372Z,1.20
2022-08-31T11:34:15.591Z,0.70
2022-08-31T11:36:50.531Z,0.93
2022-08-31T11:39:36.726Z,1.02
2022-08-31T11:42:12.437Z,0.82
2022-08-31T11:45:01.843Z,0.70
2022-08-31T11:47:41.573Z,0.75
2022-08-31T11:50:55.041Z,0.60
2022-08-31T11:53:31.844Z,1.08
2022-08-31T11:56:04.129Z,0.63
2022-08-31T11:58:35.988Z,0.90
2022-08-31T12:01:30.848Z,0.73
2022-08-31T12:04:03.926Z,1.00
2022-08-31T12:07:00.654Z,1.33
2022-08-31T12:09:52.088Z,1.00
2022-08-31T12:12:31.474Z,0.60
2022-08-31T12:15:09.043Z,0.73
2022-08-31T12:17:47.066Z,0.70
2022-08-31T12:20:18.741Z,0.80
2022-08-31T12:23:32.212Z,0.80
2022-08-31T12:26:31.621Z,0.80
2022-08-31T12:29:24.983Z,1.15
2022-08-31T12:32:18.330Z,1.02
2022-08-31T12:34:49.912Z,0.70
2022-08-31T12:37:29.577Z,0.85
2022-08-31T12:40:13.520Z,0.90
2022-08-31T12:42:48.143Z,0.70
2022-08-31T12:45:18.505Z,0.40
2022-08-31T12:47:56.229Z,1.10
2022-08-31T12:50:30.810Z,0.70
2022-08-31T12:53:33.857Z,0.75
2022-08-31T12:56:06.593Z,0.68
2022-08-31T12:58:51.186Z,0.85
2022-08-31T13:01:23.219Z,0.80
2022-08-31T13:03:56.745Z,0.70
2022-08-31T13:06:28.176Z,1.00
2022-08-31T13:08:59.048Z,0.98
2022-08-31T13:11:35.282Z,0.68
2022-08-31T13:14:12.570Z,1.10
2022-08-31T13:16:42.967Z,0.90
2022-08-31T13:19:19.329Z,0.93
2022-08-31T13:21:51.557Z,0.82
2022-08-31T13:24:28.430Z,1.10
2022-08-31T13:27:09.392Z,0.80
2022-08-31T13:29:44.232Z,0.77
2022-08-31T13:32:14.830Z,0.57
2022-08-31T13:34:44.147Z,0.77
2022-08-31T13:37:15.487Z,0.70
2022-08-31T13:39:46.183Z,0.68
2022-08-31T13:42:25.878Z,0.63
2022-08-31T13:44:56.244Z,0.73
2022-08-31T13:47:27.581Z,0.60
2022-08-31T13:50:07.299Z,0.80
2022-08-31T13:52:37.082Z,1.08
2022-08-31T13:55:08.143Z,0.88
2022-08-31T13:57:38.404Z,0.90
2022-08-31T14:00:38.203Z,0.90
2022-08-31T14:03:33.042Z,0.75
2022-08-31T14:06:24.858Z,0.68
2022-08-31T14:08:56.572Z,1.00
2022-08-31T14:11:28.598Z,1.10
2022-08-31T14:14:05.918Z,1.10
2022-08-31T14:16:37.067Z,1.45
2022-08-31T14:19:05.586Z,0.60
2022-08-31T14:21:42.055Z,0.85
2022-08-31T14:24:12.308Z,1.20
2022-08-31T14:26:42.599Z,1.17
2022-08-31T14:29:13.647Z,1.35
2022-08-31T14:31:45.300Z,1.15
2022-08-31T14:34:25.615Z,1.70
2022-08-31T14:36:59.029Z,1.08
2022-08-31T14:39:31.152Z,1.20
2022-08-31T14:42:01.665Z,0.93
2022-08-31T14:44:32.984Z,1.00
2022-08-31T14:47:01.666Z,0.93
2022-08-31T14:49:36.328Z,0.98
2022-08-31T14:52:07.413Z,0.98
2022-08-31T14:54:37.225Z,1.10
2022-08-31T14:57:09.701Z,1.00
2022-08-31T14:59:40.681Z,1.00
2022-08-31T15:02:10.098Z,0.98
2022-08-31T15:04:43.678Z,1.60
2022-08-31T15:07:16.498Z,1.00
2022-08-31T15:09:46.873Z,0.88
2022-08-31T15:12:16.896Z,1.25
2022-08-31T15:14:47.268Z,2.53
2022-08-31T15:17:19.855Z,1.10
2022-08-31T15:19:50.506Z,1.05
2022-08-31T15:22:20.637Z,1.00
2022-08-31T15:24:49.690Z,1.55
2022-08-31T15:27:18.439Z,0.90
2022-08-31T15:29:48.652Z,0.90
2022-08-31T15:34:57.695Z,1.15
2022-08-31T15:37:30.733Z,1.30
2022-08-31T15:40:01.537Z,1.15
2022-08-31T15:42:31.435Z,1.42
2022-08-31T15:45:00.264Z,1.00
2022-08-31T15:47:48.143Z,1.35
2022-08-31T15:50:19.180Z,0.93
2022-08-31T15:52:51.894Z,1.40
2022-08-31T15:55:26.444Z,1.05
2022-08-31T15:57:55.383Z,0.88
2022-08-31T16:00:24.112Z,0.95
2022-08-31T16:02:54.800Z,0.90
2022-08-31T16:05:23.484Z,1.00
2022-08-31T16:07:57.286Z,1.00
2022-08-31T16:10:28.124Z,1.23
2022-08-31T16:12:56.598Z,1.35
2022-08-31T16:15:26.211Z,0.73
2022-08-31T16:17:57.630Z,0.82
2022-08-31T16:20:29.399Z,1.23
2022-08-31T16:23:01.529Z,1.10
2022-08-31T16:25:41.901Z,0.80
2022-08-31T16:28:18.384Z,1.00
2022-08-31T16:30:46.921Z,1.05
2022-08-31T16:33:15.216Z,1.10
2022-08-31T16:35:44.591Z,1.00
2022-08-31T16:38:14.899Z,0.90
2022-08-31T16:40:43.261Z,1.00
2022-08-31T16:43:12.132Z,1.50
2022-08-31T16:45:41.313Z,1.02
2022-08-31T16:48:29.576Z,1.17
2022-08-31T16:51:02.845Z,1.20
2022-08-31T16:53:32.925Z,0.95
2022-08-31T16:56:04.182Z,1.55
2022-08-31T16:58:52.317Z,1.30
2022-08-31T17:01:23.206Z,1.20
2022-08-31T17:03:53.430Z,1.33
2022-08-31T17:06:21.923Z,1.35
2022-08-31T17:08:54.865Z,1.50
2022-08-31T17:11:25.061Z,1.60
2022-08-31T17:13:58.389Z,1.38
2022-08-31T17:16:28.981Z,1.40
2022-08-31T17:18:58.712Z,1.27
2022-08-31T17:21:29.177Z,1.20
2022-08-31T17:24:01.925Z,1.50
2022-08-31T17:26:33.854Z,1.23
2022-08-31T17:29:05.344Z,1.80
2022-08-31T17:31:36.948Z,1.10
2022-08-31T17:34:05.290Z,1.20
2022-08-31T17:36:37.311Z,1.98
2022-08-31T17:39:08.551Z,1.60
2022-08-31T17:41:39.871Z,2.30
2022-08-31T17:44:09.141Z,1.58
2022-08-31T17:46:38.153Z,1.70
2022-08-31T17:49:06.491Z,1.52
2022-08-31T17:51:36.089Z,1.73
2022-08-31T17:54:10.825Z,1.48
2022-08-31T17:56:47.445Z,1.33
2022-08-31T17:59:18.138Z,1.50
2022-08-31T18:01:48.013Z,1.40
2022-08-31T18:04:16.776Z,1.60
2022-08-31T18:06:49.186Z,1.88
2022-08-31T18:09:22.003Z,1.85
2022-08-31T18:11:50.527Z,1.55
2022-08-31T18:14:20.499Z,1.75
2022-08-31T18:16:49.498Z,1.70
2022-08-31T18:19:25.553Z,1.98
2022-08-31T18:21:56.922Z,1.50
2022-08-31T18:24:27.098Z,1.30
2022-08-31T18:26:56.784Z,1.50
2022-08-31T18:29:25.347Z,1.50
2022-08-31T18:31:56.858Z,1.48
2022-08-31T18:34:26.854Z,1.60
2022-08-31T18:36:55.568Z,1.92
2022-08-31T18:39:50.107Z,1.63
2022-08-31T18:42:33.665Z,1.20
2022-08-31T18:45:18.962Z,2.15
2022-08-31T18:48:13.558Z,1.70
2022-08-31T18:50:39.190Z,2.13
2022-08-31T18:53:11.171Z,1.95
2022-08-31T18:55:45.475Z,2.13
2022-08-31T18:58:13.962Z,1.30
2022-08-31T19:00:42.944Z,1.70
2022-08-31T19:03:13.044Z,1.48
2022-08-31T19:05:41.529Z,1.63
2022-08-31T19:08:09.979Z,1.58
2022-08-31T19:10:38.037Z,1.58
2022-08-31T19:13:08.003Z,1.45
2022-08-31T19:15:39.416Z,1.45
2022-08-31T19:18:08.268Z,1.50
2022-08-31T19:20:36.724Z,1.23
2022-08-31T19:23:06.414Z,2.05
2022-08-31T19:25:35.248Z,1.52
2022-08-31T19:28:07.979Z,2.00
2022-08-31T19:30:40.749Z,1.58
2022-08-31T19:33:11.615Z,1.70
2022-08-31T19:35:41.205Z,1.48
2022-08-31T19:38:09.606Z,1.63
2022-08-31T19:40:39.332Z,1.98
2022-08-31T19:46:09.605Z,1.92
2022-08-31T19:48:45.972Z,1.70
2022-08-31T19:51:15.694Z,1.65
2022-08-31T19:53:45.182Z,1.73
2022-08-31T19:56:17.665Z,1.90
2022-08-31T19:58:48.490Z,2.30
2022-08-31T20:01:18.944Z,2.17
2022-08-31T20:06:21.541Z,1.80
2022-08-31T20:08:50.788Z,1.35
2022-08-31T20:11:23.243Z,1.92
2022-08-31T20:13:52.030Z,1.60
2022-08-31T20:16:22.268Z,2.97
2022-08-31T20:19:04.218Z,2.25
2022-08-31T20:21:35.008Z,1.75
2022-08-31T20:24:09.093Z,1.83
2022-08-31T20:26:42.595Z,2.00
2022-08-31T20:29:18.342Z,2.00
2022-08-31T20:36:50.193Z,1.58
2022-08-31T20:39:19.746Z,1.58
2022-08-31T20:41:48.857Z,2.20
2022-08-31T20:44:19.147Z,1.52
2022-08-31T20:47:09.043Z,2.10
2022-08-31T20:49:40.047Z,2.92
2022-08-31T20:52:09.492Z,2.20
2022-08-31T20:54:38.318Z,2.63
2022-08-31T20:57:09.129Z,2.50
2022-08-31T20:59:38.069Z,1.98
2022-08-31T21:02:08.587Z,2.10
2022-08-31T21:04:39.004Z,2.40
2022-08-31T21:07:09.047Z,1.73
2022-08-31T21:09:37.364Z,2.40
2022-08-31T21:12:07.224Z,1.77
2022-08-31T21:14:36.677Z,1.40
2022-08-31T21:17:07.786Z,1.30
2022-08-31T21:19:38.633Z,1.33
2022-08-31T21:22:08.475Z,2.33
2022-08-31T21:24:38.576Z,1.83
2022-08-31T21:27:09.109Z,1.63
2022-08-31T21:29:38.250Z,1.60
2022-08-31T21:32:10.505Z,1.50
2022-08-31T21:34:38.950Z,1.77
2022-08-31T21:37:09.119Z,1.75
2022-08-31T21:39:38.440Z,1.60
2022-08-31T21:42:07.258Z,1.40
2022-08-31T21:44:36.114Z,1.40
2022-08-31T21:47:04.999Z,1.40
2022-08-31T21:49:36.468Z,1.33
2022-08-31T21:52:04.857Z,1.88
2022-08-31T21:54:33.180Z,1.45
2022-08-31T21:57:02.905Z,1.38
2022-08-31T21:59:35.105Z,1.35
2022-08-31T22:02:06.460Z,1.27
2022-08-31T22:04:37.996Z,1.15
2022-08-31T22:07:07.781Z,1.10
2022-08-31T22:09:37.694Z,1.10
2022-08-31T22:12:07.499Z,1.30
2022-08-31T22:14:38.068Z,1.45
2022-08-31T22:19:39.187Z,1.00
2022-08-31T22:22:12.050Z,1.40
2022-08-31T22:24:42.124Z,1.05
2022-08-31T22:27:12.757Z,0.90
2022-08-31T22:29:41.522Z,1.40
2022-08-31T22:32:12.881Z,1.48
2022-08-31T22:34:44.153Z,1.98
2022-08-31T22:37:14.256Z,1.42
2022-08-31T22:39:43.491Z,1.30
2022-08-31T22:42:13.259Z,0.98
2022-08-31T22:44:43.250Z,1.20
2022-08-31T22:47:11.963Z,1.30
2022-08-31T22:49:40.404Z,0.90
2022-08-31T22:52:14.018Z,1.38
2022-08-31T22:54:45.958Z,1.05
2022-08-31T22:57:15.544Z,1.40
2022-08-31T22:59:44.304Z,1.13
2022-08-31T23:02:13.101Z,1.13
2022-08-31T23:04:43.950Z,1.23
2022-08-31T23:07:16.553Z,1.30
2022-08-31T23:09:46.123Z,1.02
2022-08-31T23:12:15.138Z,1.10
2022-08-31T23:14:43.937Z,1.10
2022-08-31T23:17:14.008Z,1.20
2022-08-31T23:19:43.822Z,1.23
2022-08-31T23:22:15.493Z,1.20
2022-08-31T23:24:47.106Z,1.13
2022-08-31T23:27:18.827Z,1.20
2022-08-31T23:29:53.105Z,1.55
2022-08-31T23:32:27.692Z,1.30
2022-08-31T23:34:58.467Z,0.90
2022-08-31T23:37:30.655Z,1.10
2022-08-31T23:40:00.816Z,1.27
2022-08-31T23:42:30.007Z,1.00
2022-08-31T23:44:59.109Z,1.23
2022-08-31T23:47:29.593Z,1.88
2022-08-31T23:49:59.469Z,1.55
2022-08-31T23:52:41.430Z,1.38
2022-08-31T23:55:11.588Z,2.28
2022-08-31T23:57:42.102Z,1.98
